createdAt,value
2023-08-14T00:01:22.925Z,85.27
2023-08-14T00:03:52.641Z,85.74
2023-08-14T00:06:20.786Z,85.54
2023-08-14T00:08:48.582Z,86.37
2023-08-14T00:11:16.426Z,86.46
2023-08-14T00:13:52.318Z,86.34
2023-08-14T00:16:22.235Z,86.03
2023-08-14T00:18:50.598Z,85.90
2023-08-14T00:21:18.553Z,85.96
2023-08-14T00:23:46.395Z,86.40
2023-08-14T00:26:14.237Z,86.34
2023-08-14T00:28:42.265Z,86.89
2023-08-14T00:31:10.195Z,87.09
2023-08-14T00:33:39.418Z,86.69
2023-08-14T00:36:07.954Z,86.55
2023-08-14T00:38:36.526Z,86.87
2023-08-14T00:41:04.811Z,87.41
2023-08-14T00:43:32.618Z,87.44
2023-08-14T00:46:02.243Z,87.66
2023-08-14T00:48:30.661Z,87.90
2023-08-14T00:51:00.612Z,87.78
2023-08-14T00:53:30.807Z,87.83
2023-08-14T00:56:01.408Z,88.02
2023-08-14T00:58:30.089Z,87.79
2023-08-14T01:00:59.650Z,87.99
2023-08-14T01:03:27.646Z,88.30
2023-08-14T01:05:55.977Z,88.41
2023-08-14T01:08:25.900Z,88.36
2023-08-14T01:11:01.827Z,88.50
2023-08-14T01:13:38.769Z,88.36
2023-08-14T01:16:09.878Z,88.51
2023-08-14T01:18:41.192Z,88.79
2023-08-14T01:21:18.665Z,89.05
2023-08-14T01:24:03.138Z,89.29
2023-08-14T01:26:33.563Z,89.77
2023-08-14T01:29:04.125Z,90.31
2023-08-14T01:31:32.427Z,89.90
2023-08-14T01:34:00.326Z,90.20
2023-08-14T01:36:35.403Z,90.35
2023-08-14T01:39:09.371Z,90.59
2023-08-14T01:41:45.401Z,90.40
2023-08-14T01:44:17.076Z,90.21
2023-08-14T01:46:47.901Z,90.33
2023-08-14T01:49:18.737Z,90.65
2023-08-14T01:51:48.372Z,90.39
2023-08-14T01:54:16.188Z,90.57
2023-08-14T01:56:45.632Z,90.55
2023-08-14T01:59:13.546Z,90.69
2023-08-14T02:01:41.391Z,90.66
2023-08-14T02:04:10.199Z,90.75
2023-08-14T02:06:38.068Z,90.71
2023-08-14T02:09:06.370Z,90.41
2023-08-14T02:11:34.169Z,90.27
2023-08-14T02:14:03.390Z,90.63
2023-08-14T02:16:31.154Z,90.82
2023-08-14T02:18:59.027Z,91.28
2023-08-14T02:21:26.900Z,91.16
2023-08-14T02:23:54.649Z,91.47
2023-08-14T02:26:22.523Z,91.52
2023-08-14T02:28:50.274Z,91.76
2023-08-14T02:31:19.874Z,92.05
2023-08-14T02:33:47.741Z,91.94
2023-08-14T02:36:15.517Z,92.00
2023-08-14T02:38:43.372Z,92.07
2023-08-14T02:41:12.850Z,92.20
2023-08-14T02:43:40.721Z,91.99
2023-08-14T02:46:09.915Z,92.11
2023-08-14T02:48:41.258Z,92.06
2023-08-14T02:51:09.276Z,92.10
2023-08-14T02:53:37.081Z,92.14
2023-08-14T02:56:05.197Z,92.54
2023-08-14T02:58:33.130Z,92.71
2023-08-14T03:01:01.425Z,92.91
2023-08-14T03:03:29.395Z,92.87
2023-08-14T03:06:00.901Z,92.99
2023-08-14T03:08:28.924Z,93.21
2023-08-14T03:10:56.747Z,93.39
2023-08-14T03:13:24.532Z,93.75
2023-08-14T03:15:52.379Z,93.75
2023-08-14T03:18:20.217Z,93.58
2023-08-14T03:20:48.105Z,93.82
2023-08-14T03:23:17.212Z,93.61
2023-08-14T03:25:45.400Z,93.86
2023-08-14T03:28:13.226Z,93.87
2023-08-14T03:30:43.779Z,93.56
2023-08-14T03:33:14.097Z,93.43
2023-08-14T03:35:41.963Z,93.20
2023-08-14T03:38:09.836Z,93.03
2023-08-14T03:40:39.066Z,93.46
2023-08-14T03:43:06.897Z,93.66
2023-08-14T03:45:34.731Z,93.73
2023-08-14T03:48:02.506Z,93.81
2023-08-14T03:50:30.346Z,94.03
2023-08-14T03:52:58.432Z,94.91
2023-08-14T03:55:26.284Z,94.57
2023-08-14T03:57:55.633Z,94.35
2023-08-14T04:00:23.514Z,94.33
2023-08-14T04:02:51.512Z,94.05
2023-08-14T04:05:19.496Z,94.23
2023-08-14T04:07:47.322Z,94.14
2023-08-14T04:10:15.109Z,94.80
2023-08-14T04:12:42.867Z,94.66
2023-08-14T04:15:16.026Z,94.46
2023-08-14T04:17:44.325Z,94.29
2023-08-14T04:20:13.138Z,94.45
2023-08-14T04:22:41.038Z,94.62
2023-08-14T04:25:09.437Z,94.71
2023-08-14T04:27:37.929Z,94.83
2023-08-14T04:30:07.417Z,94.66
2023-08-14T04:32:37.513Z,94.77
2023-08-14T04:35:06.224Z,94.76
2023-08-14T04:37:34.324Z,94.58
2023-08-14T04:40:02.171Z,94.37
2023-08-14T04:42:31.000Z,94.04
2023-08-14T04:44:58.825Z,93.75
2023-08-14T04:47:26.635Z,93.45
2023-08-14T04:49:55.968Z,93.20
2023-08-14T04:52:24.445Z,93.28
2023-08-14T04:54:54.190Z,93.26
2023-08-14T04:57:24.674Z,93.39
2023-08-14T04:59:52.735Z,93.50
2023-08-14T05:02:20.582Z,93.50
2023-08-14T05:04:48.673Z,93.22
2023-08-14T05:07:17.869Z,93.17
2023-08-14T05:09:45.751Z,92.94
2023-08-14T05:12:13.575Z,92.90
2023-08-14T05:14:41.382Z,92.67
2023-08-14T05:17:09.397Z,92.36
2023-08-14T05:19:37.168Z,92.01
2023-08-14T05:22:05.513Z,91.76
2023-08-14T05:24:34.693Z,91.67
2023-08-14T05:27:02.542Z,91.55
2023-08-14T05:29:30.306Z,91.00
2023-08-14T05:31:58.869Z,90.57
2023-08-14T05:34:26.664Z,90.05
2023-08-14T05:36:54.549Z,89.79
2023-08-14T05:39:22.318Z,89.63
2023-08-14T05:41:51.865Z,89.50
2023-08-14T05:44:19.810Z,89.21
2023-08-14T05:46:49.561Z,88.78
2023-08-14T05:49:17.989Z,88.21
2023-08-14T05:51:46.517Z,87.13
2023-08-14T05:54:14.364Z,86.79
2023-08-14T05:56:42.169Z,86.96
2023-08-14T05:59:11.412Z,86.13
2023-08-14T06:01:40.698Z,85.57
2023-08-14T06:04:08.787Z,85.44
2023-08-14T06:06:36.809Z,84.71
2023-08-14T06:09:04.990Z,84.20
2023-08-14T06:11:32.823Z,83.10
2023-08-14T06:14:00.567Z,82.31
2023-08-14T06:16:29.980Z,81.55
2023-08-14T06:18:57.836Z,80.49
2023-08-14T06:21:25.602Z,79.71
2023-08-14T06:23:53.495Z,78.41
2023-08-14T06:26:22.311Z,77.76
2023-08-14T06:28:50.223Z,76.09
2023-08-14T06:31:18.057Z,75.91
2023-08-14T06:33:47.955Z,75.83
2023-08-14T06:36:16.308Z,75.58
2023-08-14T06:38:44.050Z,75.53
2023-08-14T06:41:11.856Z,75.07
2023-08-14T06:43:39.705Z,74.55
2023-08-14T06:46:07.531Z,73.06
2023-08-14T06:48:35.334Z,72.72
2023-08-14T06:51:04.516Z,70.85
2023-08-14T06:53:32.876Z,69.75
2023-08-14T06:56:00.806Z,69.23
2023-08-14T06:58:28.613Z,68.87
2023-08-14T07:00:57.339Z,68.40
2023-08-14T07:03:25.226Z,68.49
2023-08-14T07:05:53.019Z,68.76
2023-08-14T07:08:22.177Z,68.07
2023-08-14T07:10:50.216Z,66.17
2023-08-14T07:13:18.089Z,65.47
2023-08-14T07:15:48.598Z,64.04
2023-08-14T07:18:17.084Z,62.61
2023-08-14T07:20:46.331Z,62.60
2023-08-14T07:23:14.184Z,63.16
2023-08-14T07:25:43.368Z,63.44
2023-08-14T07:28:11.145Z,61.88
2023-08-14T07:30:39.902Z,61.91
2023-08-14T07:33:09.070Z,62.17
2023-08-14T07:35:37.083Z,60.60
2023-08-14T07:38:05.641Z,60.24
2023-08-14T07:40:33.518Z,59.15
2023-08-14T07:43:02.653Z,58.94
2023-08-14T07:45:30.480Z,59.75
2023-08-14T07:47:58.352Z,59.03
2023-08-14T07:50:26.245Z,57.38
2023-08-14T07:52:54.037Z,57.24
2023-08-14T07:55:22.045Z,56.85
2023-08-14T07:57:49.855Z,56.77
2023-08-14T08:00:19.567Z,56.70
2023-08-14T08:02:47.726Z,58.68
2023-08-14T08:05:17.511Z,57.33
2023-08-14T08:07:47.494Z,57.42
2023-08-14T08:10:15.221Z,55.89
2023-08-14T08:12:43.030Z,55.22
2023-08-14T08:15:12.192Z,53.64
2023-08-14T08:17:41.525Z,52.22
2023-08-14T08:20:10.470Z,50.38
2023-08-14T08:22:38.388Z,50.38
2023-08-14T08:25:07.192Z,50.78
2023-08-14T08:27:37.195Z,51.79
2023-08-14T08:30:06.217Z,52.68
2023-08-14T08:32:34.109Z,52.31
2023-08-14T08:35:03.298Z,52.21
2023-08-14T08:37:31.172Z,51.86
2023-08-14T08:39:59.008Z,51.53
2023-08-14T08:42:27.921Z,50.89
2023-08-14T08:44:57.744Z,48.61
2023-08-14T08:47:30.501Z,47.72
2023-08-14T08:50:00.664Z,48.11
2023-08-14T08:52:30.128Z,47.22
2023-08-14T08:55:02.282Z,47.89
2023-08-14T08:57:30.769Z,48.05
2023-08-14T09:00:02.046Z,47.56
2023-08-14T09:02:30.214Z,46.18
2023-08-14T09:04:58.145Z,45.15
2023-08-14T09:07:26.214Z,46.94
2023-08-14T09:09:55.375Z,47.39
2023-08-14T09:12:23.180Z,46.45
2023-08-14T09:15:05.346Z,47.46
2023-08-14T09:17:33.222Z,46.15
2023-08-14T09:20:03.556Z,46.42
2023-08-14T09:22:33.816Z,45.84
2023-08-14T09:25:03.506Z,47.33
2023-08-14T09:27:31.334Z,47.31
2023-08-14T09:30:00.409Z,48.21
2023-08-14T09:32:28.347Z,46.47
2023-08-14T09:35:00.110Z,48.76
2023-08-14T09:37:28.314Z,46.95
2023-08-14T09:40:16.056Z,48.24
2023-08-14T09:42:44.665Z,47.14
2023-08-14T09:45:14.421Z,48.37
2023-08-14T09:47:45.748Z,47.63
2023-08-14T09:50:15.702Z,47.79
2023-08-14T09:52:45.746Z,49.20
2023-08-14T09:55:16.713Z,47.79
2023-08-14T09:57:45.685Z,47.28
2023-08-14T10:00:14.598Z,47.80
2023-08-14T10:02:45.989Z,47.00
2023-08-14T10:05:14.400Z,46.78
2023-08-14T10:07:42.591Z,45.52
2023-08-14T10:10:12.209Z,45.96
2023-08-14T10:12:47.433Z,45.59
2023-08-14T10:15:18.073Z,45.37
2023-08-14T10:17:51.532Z,46.05
2023-08-14T10:20:23.210Z,44.71
2023-08-14T10:22:53.753Z,46.69
2023-08-14T10:25:23.716Z,45.97
2023-08-14T10:27:53.951Z,46.24
2023-08-14T10:30:24.859Z,45.10
2023-08-14T10:32:53.798Z,45.14
2023-08-14T10:35:24.948Z,46.10
2023-08-14T10:38:08.464Z,44.80
2023-08-14T10:40:38.702Z,45.93
2023-08-14T10:43:08.416Z,45.76
2023-08-14T10:45:36.311Z,46.56
2023-08-14T10:48:10.862Z,46.48
2023-08-14T10:50:38.744Z,45.55
2023-08-14T10:53:07.527Z,45.44
2023-08-14T10:55:41.564Z,45.41
2023-08-14T10:58:41.977Z,42.92
2023-08-14T11:01:11.593Z,40.86
2023-08-14T11:04:00.952Z,43.72
2023-08-14T11:06:29.809Z,45.08
2023-08-14T11:09:05.205Z,45.06
2023-08-14T11:11:33.077Z,45.00
2023-08-14T11:14:02.449Z,44.40
2023-08-14T11:16:30.740Z,44.62
2023-08-14T11:18:59.279Z,43.06
2023-08-14T11:21:32.116Z,43.10
2023-08-14T11:24:00.848Z,42.92
2023-08-14T11:26:30.908Z,40.50
2023-08-14T11:28:58.754Z,42.10
2023-08-14T11:31:34.341Z,43.26
2023-08-14T11:34:02.885Z,44.23
2023-08-14T11:39:01.602Z,38.80
2023-08-14T11:41:31.580Z,36.32
2023-08-14T11:44:00.101Z,38.95
2023-08-14T11:46:29.353Z,36.12
2023-08-14T11:48:57.379Z,36.62
2023-08-14T11:51:25.920Z,34.09
2023-08-14T11:53:54.364Z,30.94
2023-08-14T11:56:22.274Z,37.61
2023-08-14T11:58:57.674Z,37.37
2023-08-14T12:01:37.483Z,33.06
2023-08-14T12:04:06.736Z,36.66
2023-08-14T12:06:35.642Z,35.78
2023-08-14T12:09:03.628Z,34.57
2023-08-14T12:11:31.500Z,35.58
2023-08-14T12:13:59.284Z,35.89
2023-08-14T12:16:28.801Z,31.75
2023-08-14T12:18:58.879Z,30.93
2023-08-14T12:21:27.698Z,32.00
2023-08-14T12:23:57.090Z,35.63
2023-08-14T12:26:25.120Z,37.51
2023-08-14T12:28:53.100Z,39.48
2023-08-14T12:31:21.052Z,40.40
2023-08-14T12:33:53.460Z,35.83
2023-08-14T12:36:26.000Z,32.59
2023-08-14T12:38:53.793Z,30.31
2023-08-14T12:41:21.698Z,31.29
2023-08-14T12:43:49.550Z,34.73
2023-08-14T12:46:17.434Z,35.00
2023-08-14T12:48:45.268Z,36.38
2023-08-14T12:51:13.043Z,39.63
2023-08-14T12:53:42.158Z,41.06
2023-08-14T12:56:10.014Z,42.28
2023-08-14T12:58:37.815Z,42.45
2023-08-14T13:01:06.230Z,43.45
2023-08-14T13:03:36.777Z,42.40
2023-08-14T13:06:07.907Z,43.51
2023-08-14T13:08:35.892Z,43.56
2023-08-14T13:11:05.099Z,43.99
2023-08-14T13:13:32.942Z,43.92
2023-08-14T13:16:02.351Z,44.64
2023-08-14T13:18:30.233Z,43.27
2023-08-14T13:20:58.013Z,43.35
2023-08-14T13:23:25.919Z,42.17
2023-08-14T13:25:53.844Z,43.86
2023-08-14T13:28:22.958Z,44.74
2023-08-14T13:30:51.505Z,43.46
2023-08-14T13:33:19.678Z,41.02
2023-08-14T13:35:47.701Z,38.00
2023-08-14T13:38:15.530Z,39.58
2023-08-14T13:40:43.868Z,41.43
2023-08-14T13:43:11.756Z,40.90
2023-08-14T13:45:42.512Z,40.79
2023-08-14T13:48:12.451Z,37.30
2023-08-14T13:50:42.979Z,34.15
2023-08-14T13:53:11.128Z,29.76
2023-08-14T13:55:43.220Z,30.38
2023-08-14T13:58:11.104Z,30.88
2023-08-14T14:00:40.395Z,25.28
2023-08-14T14:03:08.300Z,28.58
2023-08-14T14:05:36.134Z,28.38
2023-08-14T14:08:04.060Z,27.65
2023-08-14T14:10:32.033Z,28.08
2023-08-14T14:13:02.454Z,26.64
2023-08-14T14:15:31.346Z,27.81
2023-08-14T14:18:00.676Z,32.84
2023-08-14T14:20:28.867Z,32.29
2023-08-14T14:22:56.696Z,30.25
2023-08-14T14:25:24.488Z,34.46
2023-08-14T14:27:52.270Z,35.43
2023-08-14T14:30:20.051Z,35.05
2023-08-14T14:32:47.962Z,35.57
2023-08-14T14:35:17.201Z,36.17
2023-08-14T14:37:45.004Z,35.07
2023-08-14T14:40:13.079Z,33.33
2023-08-14T14:42:41.083Z,32.50
2023-08-14T14:45:12.608Z,36.62
2023-08-14T14:47:45.611Z,38.71
2023-08-14T14:50:23.909Z,37.85
2023-08-14T14:52:57.665Z,34.77
2023-08-14T14:55:28.045Z,33.77
2023-08-14T14:57:55.792Z,34.87
2023-08-14T15:00:24.299Z,34.57
2023-08-14T15:02:52.638Z,37.84
2023-08-14T15:07:51.250Z,35.60
2023-08-14T15:10:20.624Z,37.16
2023-08-14T15:12:48.424Z,37.12
2023-08-14T15:15:16.262Z,38.33
2023-08-14T15:17:45.089Z,39.52
2023-08-14T15:20:13.992Z,38.46
2023-08-14T15:22:44.135Z,41.03
2023-08-14T15:25:12.979Z,39.23
2023-08-14T15:27:42.264Z,40.49
2023-08-14T15:30:10.831Z,40.50
2023-08-14T15:32:38.830Z,43.51
2023-08-14T15:35:07.425Z,46.65
2023-08-14T15:37:35.483Z,48.42
2023-08-14T15:40:05.137Z,48.96
2023-08-14T15:42:33.029Z,50.33
2023-08-14T15:45:02.130Z,50.51
2023-08-14T15:47:29.994Z,51.62
2023-08-14T15:49:57.864Z,52.09
2023-08-14T15:52:30.019Z,53.43
2023-08-14T15:54:59.022Z,54.31
2023-08-14T15:57:28.097Z,53.45
2023-08-14T15:59:56.097Z,53.18
2023-08-14T16:02:25.381Z,53.41
2023-08-14T16:04:53.897Z,53.45
2023-08-14T16:07:22.664Z,53.84
2023-08-14T16:09:52.269Z,54.32
2023-08-14T16:12:20.383Z,53.24
2023-08-14T16:14:48.290Z,53.58
2023-08-14T16:17:16.144Z,53.64
2023-08-14T16:19:45.397Z,54.72
2023-08-14T16:22:13.200Z,55.04
2023-08-14T16:24:41.477Z,55.06
2023-08-14T16:27:10.893Z,54.73
2023-08-14T16:29:38.676Z,54.68
2023-08-14T16:32:06.736Z,53.85
2023-08-14T16:34:34.629Z,54.92
2023-08-14T16:37:04.663Z,54.18
2023-08-14T16:39:32.476Z,55.37
2023-08-14T16:42:00.261Z,55.76
2023-08-14T16:44:28.150Z,56.42
2023-08-14T16:46:55.936Z,55.02
2023-08-14T16:49:23.830Z,56.25
2023-08-14T16:51:51.596Z,56.12
2023-08-14T16:54:20.715Z,57.27
2023-08-14T16:56:48.514Z,57.70
2023-08-14T16:59:16.273Z,57.05
2023-08-14T17:01:44.055Z,57.75
2023-08-14T17:04:12.149Z,57.73
2023-08-14T17:06:39.998Z,54.92
2023-08-14T17:09:09.485Z,53.48
2023-08-14T17:11:38.649Z,53.16
2023-08-14T17:14:06.426Z,49.01
2023-08-14T17:16:34.276Z,46.21
2023-08-14T17:19:02.152Z,47.80
2023-08-14T17:21:30.122Z,52.18
2023-08-14T17:23:57.938Z,53.42
2023-08-14T17:26:25.814Z,52.15
2023-08-14T17:28:54.933Z,52.41
2023-08-14T17:31:22.765Z,50.62
2023-08-14T17:33:50.613Z,48.68
2023-08-14T17:36:18.931Z,48.22
2023-08-14T17:38:46.723Z,48.91
2023-08-14T17:41:14.509Z,51.90
2023-08-14T17:43:42.244Z,53.44
2023-08-14T17:46:11.415Z,54.71
2023-08-14T17:48:39.261Z,56.53
2023-08-14T17:51:07.095Z,57.54
2023-08-14T17:53:35.328Z,57.63
2023-08-14T17:56:03.138Z,58.05
2023-08-14T17:58:30.946Z,57.42
2023-08-14T18:00:58.794Z,58.75
2023-08-14T18:03:28.086Z,58.93
2023-08-14T18:05:56.238Z,58.86
2023-08-14T18:08:24.164Z,59.00
2023-08-14T18:10:52.044Z,59.46
2023-08-14T18:13:19.806Z,60.59
2023-08-14T18:15:47.979Z,61.27
2023-08-14T18:18:15.779Z,60.88
2023-08-14T18:20:44.019Z,60.93
2023-08-14T18:23:11.863Z,60.82
2023-08-14T18:25:39.648Z,61.90
2023-08-14T18:28:07.735Z,62.22
2023-08-14T18:30:35.524Z,62.69
2023-08-14T18:33:03.327Z,62.35
2023-08-14T18:35:31.154Z,62.35
2023-08-14T18:38:01.957Z,62.02
2023-08-14T18:40:29.734Z,63.03
2023-08-14T18:42:57.493Z,63.25
2023-08-14T18:45:26.354Z,64.01
2023-08-14T18:47:54.250Z,64.32
2023-08-14T18:50:22.794Z,64.27
2023-08-14T18:52:51.163Z,64.59
2023-08-14T18:55:20.377Z,64.88
2023-08-14T18:57:48.692Z,65.23
2023-08-14T19:00:16.671Z,65.32
2023-08-14T19:02:44.516Z,66.28
2023-08-14T19:05:12.736Z,65.57
2023-08-14T19:07:40.555Z,65.73
2023-08-14T19:10:09.340Z,66.43
2023-08-14T19:12:38.489Z,67.23
2023-08-14T19:15:09.008Z,66.99
2023-08-14T19:17:36.875Z,67.13
2023-08-14T19:20:05.690Z,67.71
2023-08-14T19:22:34.013Z,67.85
2023-08-14T19:25:02.098Z,68.02
2023-08-14T19:27:31.024Z,68.16
2023-08-14T19:30:00.266Z,68.74
2023-08-14T19:32:28.206Z,68.46
2023-08-14T19:34:56.068Z,69.22
2023-08-14T19:37:24.647Z,69.14
2023-08-14T19:39:52.611Z,69.42
2023-08-14T19:42:20.442Z,68.88
2023-08-14T19:44:48.193Z,69.77
2023-08-14T19:47:17.524Z,69.92
2023-08-14T19:49:45.598Z,70.13
2023-08-14T19:52:13.322Z,70.50
2023-08-14T19:54:41.160Z,71.09
2023-08-14T19:57:09.009Z,71.09
2023-08-14T19:59:36.818Z,71.83
2023-08-14T20:02:04.692Z,71.66
2023-08-14T20:04:34.189Z,72.31
2023-08-14T20:07:01.972Z,71.93
2023-08-14T20:09:29.839Z,71.70
2023-08-14T20:11:57.715Z,72.23
2023-08-14T20:14:25.454Z,71.87
2023-08-14T20:16:53.266Z,72.37
2023-08-14T20:19:24.451Z,72.19
2023-08-14T20:21:53.591Z,72.14
2023-08-14T20:24:21.511Z,72.98
2023-08-14T20:26:49.419Z,72.80
2023-08-14T20:29:17.186Z,72.75
2023-08-14T20:31:44.958Z,72.27
2023-08-14T20:34:12.754Z,72.71
2023-08-14T20:36:41.216Z,72.28
2023-08-14T20:39:10.382Z,72.62
2023-08-14T20:41:38.224Z,72.50
2023-08-14T20:44:06.840Z,73.19
2023-08-14T20:46:34.662Z,72.48
2023-08-14T20:49:02.436Z,72.55
2023-08-14T20:51:30.229Z,72.92
2023-08-14T20:53:58.009Z,72.70
2023-08-14T20:56:27.106Z,73.21
2023-08-14T20:58:54.884Z,73.61
2023-08-14T21:01:22.716Z,73.51
2023-08-14T21:03:50.778Z,73.39
2023-08-14T21:06:19.004Z,73.76
2023-08-14T21:08:46.849Z,74.06
2023-08-14T21:11:16.200Z,73.84
2023-08-14T21:13:45.365Z,74.42
2023-08-14T21:16:13.210Z,74.02
2023-08-14T21:18:41.054Z,74.29
2023-08-14T21:21:08.790Z,73.72
2023-08-14T21:23:36.564Z,73.68
2023-08-14T21:26:04.447Z,73.46
2023-08-14T21:28:32.327Z,74.09
2023-08-14T21:31:01.606Z,74.13
2023-08-14T21:33:29.691Z,74.50
2023-08-14T21:35:59.824Z,74.43
2023-08-14T21:38:27.607Z,74.60
2023-08-14T21:40:56.598Z,74.94
2023-08-14T21:43:25.681Z,74.61
2023-08-14T21:45:53.653Z,74.60
2023-08-14T21:48:22.812Z,74.63
2023-08-14T21:50:50.551Z,75.09
2023-08-14T21:53:19.774Z,75.27
2023-08-14T21:55:47.917Z,75.36
2023-08-14T21:58:15.806Z,75.25
2023-08-14T22:00:43.598Z,75.55
2023-08-14T22:03:11.428Z,76.18
2023-08-14T22:05:40.547Z,76.04
2023-08-14T22:08:08.297Z,76.19
2023-08-14T22:10:36.156Z,76.31
2023-08-14T22:13:04.702Z,76.03
2023-08-14T22:15:44.736Z,76.03
2023-08-14T22:18:14.320Z,76.42
2023-08-14T22:20:43.660Z,76.48
2023-08-14T22:23:13.601Z,76.64
2023-08-14T22:25:42.634Z,76.49
2023-08-14T22:28:10.374Z,76.57
2023-08-14T22:30:38.240Z,76.09
2023-08-14T22:33:06.545Z,75.82
2023-08-14T22:35:34.444Z,75.91
2023-08-14T22:38:03.540Z,75.83
2023-08-14T22:40:31.318Z,76.38
2023-08-14T22:42:59.057Z,76.58
2023-08-14T22:45:31.103Z,76.61
2023-08-14T22:47:59.067Z,76.66
2023-08-14T22:50:26.835Z,76.45
2023-08-14T22:52:54.621Z,76.48
2023-08-14T22:55:23.761Z,77.25
2023-08-14T22:57:51.890Z,77.33
2023-08-14T23:00:19.647Z,77.18
2023-08-14T23:02:47.551Z,77.75
2023-08-14T23:05:15.397Z,77.29
2023-08-14T23:07:43.230Z,77.41
2023-08-14T23:10:11.383Z,77.53
2023-08-14T23:12:40.510Z,77.34
2023-08-14T23:15:09.337Z,77.71
2023-08-14T23:17:37.132Z,77.73
2023-08-14T23:20:06.081Z,77.89
2023-08-14T23:22:33.869Z,77.48
2023-08-14T23:25:01.661Z,77.58
2023-08-14T23:27:29.448Z,78.04
2023-08-14T23:29:58.602Z,78.17
2023-08-14T23:32:26.471Z,77.94
2023-08-14T23:34:54.856Z,78.52
2023-08-14T23:37:22.992Z,79.05
2023-08-14T23:39:51.109Z,78.55
2023-08-14T23:42:19.740Z,78.14
2023-08-14T23:44:47.523Z,78.90
2023-08-14T23:47:16.626Z,79.07
2023-08-14T23:49:46.284Z,79.09
2023-08-14T23:52:14.099Z,79.16
2023-08-14T23:54:43.006Z,79.41
2023-08-14T23:57:10.868Z,79.37
2023-08-14T23:59:38.638Z,79.70
